State Park, SC (29147)

6:15 AM EDT on September 22, 2014 (GMT -0400)
Windmill Orchard | Change Station
CLOSE
Current Station
Personal Weather Station
Location: Columbia, SC
Elevation: 446 ft
Nearby Weather Stations

Elev 446 ft 34.12 °N, 80.89 °W | Updated 14 minutes ago

Rain
Rain
72.9 °F
Feels Like 72.9 °F
N
1.6
Wind Variable Wind from NW

Today
High -- | Low -- °F
--% Chance of Precip.
Yesterday
High -- | Low -- °F
Precip. -- in
7:11 AM 7:20 PM
Waning Crescent, 3% visible
Pressure 29.95 in
Visibility 7.0 miles
Clouds Mostly Cloudy 6500 ft
Overcast 8500 ft
Dew Point 73 °F
Humidity 100%
Rainfall 0.00 in
Snow Depth Not available.
UV 0 out of 12
Pollen 8.00 out of 12
Ozone Good
Flu Activity Not available.
METAR KCUB 220953Z AUTO 27007KT 7SM -RA BKN065 OVC085 23/20 A2996 RMK AO2 RAB31 SLP142 P0002 T02280200

More Conditions Fewer Conditions

Pressure 29.95 in
Visibility 7.0 miles
Clouds Mostly Cloudy 6500 ft
Overcast 8500 ft
Dew Point 73 °F
Humidity 100%
Rainfall 0.00 in
Snow Depth Not available.
UV 0 out of 12
Pollen 8.00 out of 12
Ozone Good
Flu Activity Not available.
METAR KCUB 220953Z AUTO 27007KT 7SM -RA BKN065 OVC085 23/20 A2996 RMK AO2 RAB31 SLP142 P0002 T02280200

More Conditions Fewer Conditions

10-Day Weather Forecast

Almanac

Astronomy

Sep. 22, 2014 Rise Set
Actual Time 7:11 AM EDT 7:20 PM EDT
Civil Twilight 6:46 AM EDT 7:45 PM EDT
Nautical Twilight 6:17 AM EDT 8:14 PM EDT
Astronomical Twilight 5:48 AM EDT 8:44 PM EDT
Moon 5:42 AM EDT 6:25 PM EDT
Length of Visible Light 12h 58m
Length of Day
12h 08m
Tomorrow will be 2m 7s shorter.
Waning Crescent, 3% of the Moon is Illuminated
Today
Waning Crescent
Sep 24
New
Oct 1
First Quarter
Oct 8
Full
Oct 15
Last Quarter

Today's Extremes

State Highs State Lows

Community

WunderPhotos

Upload Photos

1,755,404 photos uploaded!

Nearby

Air Quality

  Air Quality AQ Index Pollutant
Yesterday Good
OZONE
Current Good
OZONE
Monday Good
OZONE

Snow Depth

Station Depth Elevation
No new snow has been reported.

Earthquake Activity

City Distance Mag. Time & Date
New Ellenton, South Carolina 63 miles 2.6 4:38 PM EDT
2014-09-19
Minimum magnitude displayed is 2.5.

Coastal Water Temperatures

Place Temperature
No Stations Reporting

Nearby Weather Stations